SBSN/STM METAR and TAF weather

Enter ICAO airport designator
Station Type Date Time Source
SBSN METAR 2022/05/23 15:00 UTC NOAA

SBSN 231500Z 08004KT 9999 FEW015 SCT100 27/24 Q1016


Station Type Date Time Source
SBSN Decoded METAR 2022/05/23 15:00 UTC NOAA

Santarem-Aeroporto, Brazil (SBSN) 02-26S 054-43W 72M
May 23, 2022 - 11:00 AM EDT / 2022.05.23 1500 UTC
Wind: from the E (080 degrees) at 5 MPH (4 KT):0
Visibility: greater than 7 mile(s):0
Sky conditions: partly cloudy
Temperature: 80 F (27 C)
Dew Point: 75 F (24 C)
Relative Humidity: 83%
Pressure (altimeter): 30.00 in. Hg (1016 hPa)
ob: SBSN 231500Z 08004KT 9999 FEW015 SCT100 27/24 Q1016
cycle: 15

Station Type Date Time Source
SBSN TAF 2022/05/23 18:54 UTC NOAA

TAF SBSN 231442Z 2318/2418 08007KT 9999 SCT015 FEW023TCU TX30/2318Z TN23/2409Z
BECMG 2321/2323 16005KT
BECMG 2410/2412 09007KT
RMK PHI

Example: see airport list